sensor_id;sensor_type;location;lat;lon;timestamp;temperature;humidity
25716;DHT22;13573;50.936;4.328;2023-06-10T00:00:46;22.50;99.90
25716;DHT22;13573;50.936;4.328;2023-06-10T00:03:12;22.40;99.90
25716;DHT22;13573;50.936;4.328;2023-06-10T00:05:41;22.30;99.90
25716;DHT22;13573;50.936;4.328;2023-06-10T00:08:07;22.20;99.90
25716;DHT22;13573;50.936;4.328;2023-06-10T00:10:35;22.30;99.90
25716;DHT22;13573;50.936;4.328;2023-06-10T00:13:04;22.20;99.90
25716;DHT22;13573;50.936;4.328;2023-06-10T00:15:31;22.10;99.90
25716;DHT22;13573;50.936;4.328;2023-06-10T00:17:58;22.00;99.90
25716;DHT22;13573;50.936;4.328;2023-06-10T00:20:24;22.00;99.90
25716;DHT22;13573;50.936;4.328;2023-06-10T00:22:52;21.80;99.90
25716;DHT22;13573;50.936;4.328;2023-06-10T00:25:18;21.80;99.90
25716;DHT22;13573;50.936;4.328;2023-06-10T00:27:45;21.70;99.90
25716;DHT22;13573;50.936;4.328;2023-06-10T00:30:12;21.80;99.90
25716;DHT22;13573;50.936;4.328;2023-06-10T00:32:38;21.90;99.90
25716;DHT22;13573;50.936;4.328;2023-06-10T00:35:06;21.70;99.90
25716;DHT22;13573;50.936;4.328;2023-06-10T00:37:33;21.60;99.90
25716;DHT22;13573;50.936;4.328;2023-06-10T00:40:05;21.40;99.90
25716;DHT22;13573;50.936;4.328;2023-06-10T00:42:32;21.70;99.90
25716;DHT22;13573;50.936;4.328;2023-06-10T00:44:59;21.70;99.90
25716;DHT22;13573;50.936;4.328;2023-06-10T00:47:26;21.50;99.90
25716;DHT22;13573;50.936;4.328;2023-06-10T00:49:53;21.60;99.90
25716;DHT22;13573;50.936;4.328;2023-06-10T00:52:22;21.70;99.90
25716;DHT22;13573;50.936;4.328;2023-06-10T00:54:49;21.50;99.90
25716;DHT22;13573;50.936;4.328;2023-06-10T00:57:17;21.50;99.90
25716;DHT22;13573;50.936;4.328;2023-06-10T00:59:47;21.50;99.90
25716;DHT22;13573;50.936;4.328;2023-06-10T01:02:14;21.40;99.90
25716;DHT22;13573;50.936;4.328;2023-06-10T01:04:41;21.40;99.90
25716;DHT22;13573;50.936;4.328;2023-06-10T01:07:17;21.10;99.90
25716;DHT22;13573;50.936;4.328;2023-06-10T01:10:05;21.00;99.90
25716;DHT22;13573;50.936;4.328;2023-06-10T01:12:43;21.10;99.90
25716;DHT22;13573;50.936;4.328;2023-06-10T01:15:12;20.90;99.90
25716;DHT22;13573;50.936;4.328;2023-06-10T01:20:17;20.80;99.90
25716;DHT22;13573;50.936;4.328;2023-06-10T01:22:44;20.90;99.90
25716;DHT22;13573;50.936;4.328;2023-06-10T01:25:11;20.80;99.90
25716;DHT22;13573;50.936;4.328;2023-06-10T01:27:39;20.90;99.90
25716;DHT22;13573;50.936;4.328;2023-06-10T01:30:11;21.10;99.90
25716;DHT22;13573;50.936;4.328;2023-06-10T01:32:43;20.60;99.90
25716;DHT22;13573;50.936;4.328;2023-06-10T01:35:09;20.90;99.90
25716;DHT22;13573;50.936;4.328;2023-06-10T01:37:39;20.90;99.90
25716;DHT22;13573;50.936;4.328;2023-06-10T01:40:07;20.70;99.90
25716;DHT22;13573;50.936;4.328;2023-06-10T01:42:35;20.70;99.90
25716;DHT22;13573;50.936;4.328;2023-06-10T01:45:01;20.80;99.90
25716;DHT22;13573;50.936;4.328;2023-06-10T01:47:28;20.70;99.90
25716;DHT22;13573;50.936;4.328;2023-06-10T01:49:55;20.70;99.90
25716;DHT22;13573;50.936;4.328;2023-06-10T01:52:22;20.30;99.90
25716;DHT22;13573;50.936;4.328;2023-06-10T01:54:48;20.50;99.90
25716;DHT22;13573;50.936;4.328;2023-06-10T01:57:15;20.50;99.90
25716;DHT22;13573;50.936;4.328;2023-06-10T01:59:42;20.40;99.90
25716;DHT22;13573;50.936;4.328;2023-06-10T02:02:10;20.60;99.90
25716;DHT22;13573;50.936;4.328;2023-06-10T02:04:37;20.60;99.90
25716;DHT22;13573;50.936;4.328;2023-06-10T02:07:03;20.60;99.90
25716;DHT22;13573;50.936;4.328;2023-06-10T02:09:32;20.50;99.90
25716;DHT22;13573;50.936;4.328;2023-06-10T02:12:02;20.50;99.90
25716;DHT22;13573;50.936;4.328;2023-06-10T02:14:31;20.50;99.90
25716;DHT22;13573;50.936;4.328;2023-06-10T02:16:58;20.40;99.90
25716;DHT22;13573;50.936;4.328;2023-06-10T02:21:53;20.40;99.90
25716;DHT22;13573;50.936;4.328;2023-06-10T02:24:20;20.50;99.90
25716;DHT22;13573;50.936;4.328;2023-06-10T02:26:48;20.40;99.90
25716;DHT22;13573;50.936;4.328;2023-06-10T02:29:14;20.70;99.90
25716;DHT22;13573;50.936;4.328;2023-06-10T02:31:41;20.50;99.90
25716;DHT22;13573;50.936;4.328;2023-06-10T02:34:07;20.40;99.90
25716;DHT22;13573;50.936;4.328;2023-06-10T02:36:34;20.20;99.90
25716;DHT22;13573;50.936;4.328;2023-06-10T02:39:02;20.30;99.90
25716;DHT22;13573;50.936;4.328;2023-06-10T02:41:30;20.30;99.90
25716;DHT22;13573;50.936;4.328;2023-06-10T02:43:57;19.90;99.90
25716;DHT22;13573;50.936;4.328;2023-06-10T02:46:23;20.10;99.90
25716;DHT22;13573;50.936;4.328;2023-06-10T02:48:51;19.80;99.90
25716;DHT22;13573;50.936;4.328;2023-06-10T02:51:17;20.20;99.90
25716;DHT22;13573;50.936;4.328;2023-06-10T02:53:44;20.00;99.90
25716;DHT22;13573;50.936;4.328;2023-06-10T02:56:11;19.80;99.90
25716;DHT22;13573;50.936;4.328;2023-06-10T02:58:38;19.80;99.90
25716;DHT22;13573;50.936;4.328;2023-06-10T03:01:05;19.70;99.90
25716;DHT22;13573;50.936;4.328;2023-06-10T03:03:31;19.70;99.90
25716;DHT22;13573;50.936;4.328;2023-06-10T03:05:59;19.40;99.90
25716;DHT22;13573;50.936;4.328;2023-06-10T03:08:26;19.70;99.90
25716;DHT22;13573;50.936;4.328;2023-06-10T03:10:53;19.90;99.90
25716;DHT22;13573;50.936;4.328;2023-06-10T03:13:19;19.50;99.90
25716;DHT22;13573;50.936;4.328;2023-06-10T03:15:47;19.50;99.90
25716;DHT22;13573;50.936;4.328;2023-06-10T03:18:14;19.60;99.90
25716;DHT22;13573;50.936;4.328;2023-06-10T03:20:40;19.70;99.90
25716;DHT22;13573;50.936;4.328;2023-06-10T03:23:08;19.80;99.90
25716;DHT22;13573;50.936;4.328;2023-06-10T03:25:35;19.50;99.90
25716;DHT22;13573;50.936;4.328;2023-06-10T03:28:03;19.60;99.90
25716;DHT22;13573;50.936;4.328;2023-06-10T03:30:29;19.60;99.90
25716;DHT22;13573;50.936;4.328;2023-06-10T03:32:56;19.40;99.90
25716;DHT22;13573;50.936;4.328;2023-06-10T03:35:23;19.40;99.90
25716;DHT22;13573;50.936;4.328;2023-06-10T03:37:49;19.50;99.90
25716;DHT22;13573;50.936;4.328;2023-06-10T03:40:16;19.50;99.90
25716;DHT22;13573;50.936;4.328;2023-06-10T03:42:43;19.30;99.90
25716;DHT22;13573;50.936;4.328;2023-06-10T03:45:10;19.30;99.90
25716;DHT22;13573;50.936;4.328;2023-06-10T03:47:37;19.40;99.90
25716;DHT22;13573;50.936;4.328;2023-06-10T03:50:07;19.30;99.90
25716;DHT22;13573;50.936;4.328;2023-06-10T03:52:34;19.20;99.90
25716;DHT22;13573;50.936;4.328;2023-06-10T03:55:02;19.30;99.90
25716;DHT22;13573;50.936;4.328;2023-06-10T03:57:29;19.00;99.90
25716;DHT22;13573;50.936;4.328;2023-06-10T03:59:56;19.10;99.90
25716;DHT22;13573;50.936;4.328;2023-06-10T04:02:22;19.20;99.90
25716;DHT22;13573;50.936;4.328;2023-06-10T04:04:49;19.40;99.90
25716;DHT22;13573;50.936;4.328;2023-06-10T04:07:17;19.30;99.90
25716;DHT22;13573;50.936;4.328;2023-06-10T04:09:46;19.70;99.90
25716;DHT22;13573;50.936;4.328;2023-06-10T04:12:13;19.50;99.90
25716;DHT22;13573;50.936;4.328;2023-06-10T04:14:40;19.10;99.90
25716;DHT22;13573;50.936;4.328;2023-06-10T04:17:08;19.30;99.90
25716;DHT22;13573;50.936;4.328;2023-06-10T04:19:36;19.40;99.90
25716;DHT22;13573;50.936;4.328;2023-06-10T04:22:03;19.10;99.90
25716;DHT22;13573;50.936;4.328;2023-06-10T04:24:31;19.10;99.90
25716;DHT22;13573;50.936;4.328;2023-06-10T04:26:57;19.10;99.90
25716;DHT22;13573;50.936;4.328;2023-06-10T04:29:24;19.50;99.90
25716;DHT22;13573;50.936;4.328;2023-06-10T04:31:51;19.50;99.90
25716;DHT22;13573;50.936;4.328;2023-06-10T04:34:19;19.50;99.90
25716;DHT22;13573;50.936;4.328;2023-06-10T04:36:46;19.40;99.90
25716;DHT22;13573;50.936;4.328;2023-06-10T04:39:13;19.50;99.90
25716;DHT22;13573;50.936;4.328;2023-06-10T04:41:39;19.50;99.90
25716;DHT22;13573;50.936;4.328;2023-06-10T04:44:06;19.60;99.90
25716;DHT22;13573;50.936;4.328;2023-06-10T04:46:33;19.60;99.90
25716;DHT22;13573;50.936;4.328;2023-06-10T04:48:59;19.80;99.90
25716;DHT22;13573;50.936;4.328;2023-06-10T04:51:26;19.90;99.90
25716;DHT22;13573;50.936;4.328;2023-06-10T04:53:53;20.00;99.90
25716;DHT22;13573;50.936;4.328;2023-06-10T04:56:19;20.40;99.90
25716;DHT22;13573;50.936;4.328;2023-06-10T04:58:46;20.60;99.90
25716;DHT22;13573;50.936;4.328;2023-06-10T05:01:12;20.90;99.90
25716;DHT22;13573;50.936;4.328;2023-06-10T05:03:39;20.60;99.90
25716;DHT22;13573;50.936;4.328;2023-06-10T05:06:06;20.70;99.90
25716;DHT22;13573;50.936;4.328;2023-06-10T05:08:33;20.60;99.90
25716;DHT22;13573;50.936;4.328;2023-06-10T05:11:00;20.80;99.90
25716;DHT22;13573;50.936;4.328;2023-06-10T05:13:26;20.90;99.90
25716;DHT22;13573;50.936;4.328;2023-06-10T05:15:53;21.50;99.90
25716;DHT22;13573;50.936;4.328;2023-06-10T05:18:20;21.90;99.90
25716;DHT22;13573;50.936;4.328;2023-06-10T05:20:47;22.00;99.90
25716;DHT22;13573;50.936;4.328;2023-06-10T05:23:13;21.40;99.90
25716;DHT22;13573;50.936;4.328;2023-06-10T05:25:40;21.60;99.90
25716;DHT22;13573;50.936;4.328;2023-06-10T05:28:08;21.80;99.90
25716;DHT22;13573;50.936;4.328;2023-06-10T05:30:37;22.00;99.90
25716;DHT22;13573;50.936;4.328;2023-06-10T05:33:05;22.10;99.90
25716;DHT22;13573;50.936;4.328;2023-06-10T05:35:31;22.00;99.90
25716;DHT22;13573;50.936;4.328;2023-06-10T05:37:58;21.80;99.90
25716;DHT22;13573;50.936;4.328;2023-06-10T05:40:24;22.10;99.90
25716;DHT22;13573;50.936;4.328;2023-06-10T05:42:51;21.50;99.90
25716;DHT22;13573;50.936;4.328;2023-06-10T05:45:18;21.20;99.90
25716;DHT22;13573;50.936;4.328;2023-06-10T05:47:44;21.60;99.90
25716;DHT22;13573;50.936;4.328;2023-06-10T05:50:11;21.60;99.90
25716;DHT22;13573;50.936;4.328;2023-06-10T05:52:37;22.10;99.90
25716;DHT22;13573;50.936;4.328;2023-06-10T05:55:07;21.70;99.90
25716;DHT22;13573;50.936;4.328;2023-06-10T05:57:34;21.70;99.90
25716;DHT22;13573;50.936;4.328;2023-06-10T06:00:01;22.10;99.90
25716;DHT22;13573;50.936;4.328;2023-06-10T06:02:27;22.60;99.90
25716;DHT22;13573;50.936;4.328;2023-06-10T06:04:54;22.30;99.90
25716;DHT22;13573;50.936;4.328;2023-06-10T06:07:20;22.60;99.90
25716;DHT22;13573;50.936;4.328;2023-06-10T06:09:47;23.00;99.90
25716;DHT22;13573;50.936;4.328;2023-06-10T06:12:14;22.70;99.90
25716;DHT22;13573;50.936;4.328;2023-06-10T06:14:41;22.60;99.90
25716;DHT22;13573;50.936;4.328;2023-06-10T06:17:07;21.30;99.90
25716;DHT22;13573;50.936;4.328;2023-06-10T06:19:34;22.50;99.90
25716;DHT22;13573;50.936;4.328;2023-06-10T06:22:01;22.20;99.90
25716;DHT22;13573;50.936;4.328;2023-06-10T06:24:28;22.30;99.90
25716;DHT22;13573;50.936;4.328;2023-06-10T06:26:55;22.40;99.90
25716;DHT22;13573;50.936;4.328;2023-06-10T06:29:21;22.60;99.90
25716;DHT22;13573;50.936;4.328;2023-06-10T06:31:48;23.00;99.90
25716;DHT22;13573;50.936;4.328;2023-06-10T06:34:14;23.80;99.90
25716;DHT22;13573;50.936;4.328;2023-06-10T06:36:41;23.70;99.90
25716;DHT22;13573;50.936;4.328;2023-06-10T06:39:08;24.40;99.90
25716;DHT22;13573;50.936;4.328;2023-06-10T06:41:34;24.40;99.90
25716;DHT22;13573;50.936;4.328;2023-06-10T06:44:01;24.10;99.90
25716;DHT22;13573;50.936;4.328;2023-06-10T06:46:28;24.50;99.90
25716;DHT22;13573;50.936;4.328;2023-06-10T06:48:55;24.60;99.90
25716;DHT22;13573;50.936;4.328;2023-06-10T06:51:22;23.90;99.90
25716;DHT22;13573;50.936;4.328;2023-06-10T06:53:48;24.30;99.90
25716;DHT22;13573;50.936;4.328;2023-06-10T06:56:17;24.20;99.90
25716;DHT22;13573;50.936;4.328;2023-06-10T06:58:43;24.30;99.90
25716;DHT22;13573;50.936;4.328;2023-06-10T07:01:10;24.60;99.90
25716;DHT22;13573;50.936;4.328;2023-06-10T07:03:36;24.90;99.90
25716;DHT22;13573;50.936;4.328;2023-06-10T07:06:03;24.80;99.90
25716;DHT22;13573;50.936;4.328;2023-06-10T07:08:30;25.30;99.90
25716;DHT22;13573;50.936;4.328;2023-06-10T07:10:56;25.50;99.90
25716;DHT22;13573;50.936;4.328;2023-06-10T07:13:23;25.90;99.90
25716;DHT22;13573;50.936;4.328;2023-06-10T07:15:50;25.80;99.90
25716;DHT22;13573;50.936;4.328;2023-06-10T07:18:16;26.00;99.90
25716;DHT22;13573;50.936;4.328;2023-06-10T07:20:44;27.30;99.90
25716;DHT22;13573;50.936;4.328;2023-06-10T07:23:11;28.10;99.90
25716;DHT22;13573;50.936;4.328;2023-06-10T07:25:38;28.20;99.90
25716;DHT22;13573;50.936;4.328;2023-06-10T07:28:04;28.00;99.90
25716;DHT22;13573;50.936;4.328;2023-06-10T07:30:31;28.80;99.90
25716;DHT22;13573;50.936;4.328;2023-06-10T07:32:58;28.70;99.90
25716;DHT22;13573;50.936;4.328;2023-06-10T07:35:24;28.20;99.90
25716;DHT22;13573;50.936;4.328;2023-06-10T07:37:51;28.60;99.90
25716;DHT22;13573;50.936;4.328;2023-06-10T07:40:18;28.60;99.90
25716;DHT22;13573;50.936;4.328;2023-06-10T07:42:45;29.10;99.90
25716;DHT22;13573;50.936;4.328;2023-06-10T07:45:11;29.10;99.90
25716;DHT22;13573;50.936;4.328;2023-06-10T07:47:38;28.70;99.90
25716;DHT22;13573;50.936;4.328;2023-06-10T07:50:05;28.90;99.90
25716;DHT22;13573;50.936;4.328;2023-06-10T07:52:32;28.40;99.90
25716;DHT22;13573;50.936;4.328;2023-06-10T07:54:58;28.60;99.90
25716;DHT22;13573;50.936;4.328;2023-06-10T07:57:25;28.20;99.90
25716;DHT22;13573;50.936;4.328;2023-06-10T07:59:52;28.60;99.90
25716;DHT22;13573;50.936;4.328;2023-06-10T08:02:20;28.70;99.90
25716;DHT22;13573;50.936;4.328;2023-06-10T08:04:47;28.80;99.90
25716;DHT22;13573;50.936;4.328;2023-06-10T08:07:14;29.10;99.90
25716;DHT22;13573;50.936;4.328;2023-06-10T08:09:40;30.10;99.90
25716;DHT22;13573;50.936;4.328;2023-06-10T08:12:07;30.80;99.90
25716;DHT22;13573;50.936;4.328;2023-06-10T08:14:34;31.00;99.90
25716;DHT22;13573;50.936;4.328;2023-06-10T08:17:00;30.80;99.90
25716;DHT22;13573;50.936;4.328;2023-06-10T08:19:27;31.20;99.90
25716;DHT22;13573;50.936;4.328;2023-06-10T08:21:54;30.50;99.90
25716;DHT22;13573;50.936;4.328;2023-06-10T08:24:20;31.40;99.90
25716;DHT22;13573;50.936;4.328;2023-06-10T08:26:47;30.80;99.90
25716;DHT22;13573;50.936;4.328;2023-06-10T08:29:13;30.50;99.90
25716;DHT22;13573;50.936;4.328;2023-06-10T08:31:42;30.10;99.90
25716;DHT22;13573;50.936;4.328;2023-06-10T08:34:09;30.40;99.90
25716;DHT22;13573;50.936;4.328;2023-06-10T08:36:36;30.40;99.90
25716;DHT22;13573;50.936;4.328;2023-06-10T08:39:03;30.90;99.90
25716;DHT22;13573;50.936;4.328;2023-06-10T08:41:34;31.40;99.90
25716;DHT22;13573;50.936;4.328;2023-06-10T08:44:06;31.20;99.70
25716;DHT22;13573;50.936;4.328;2023-06-10T08:46:33;31.30;99.20
25716;DHT22;13573;50.936;4.328;2023-06-10T08:49:02;31.60;98.70
25716;DHT22;13573;50.936;4.328;2023-06-10T08:51:31;31.40;98.80
25716;DHT22;13573;50.936;4.328;2023-06-10T08:54:04;31.80;98.30
25716;DHT22;13573;50.936;4.328;2023-06-10T08:56:33;31.90;97.90
25716;DHT22;13573;50.936;4.328;2023-06-10T08:59:01;32.50;98.00
25716;DHT22;13573;50.936;4.328;2023-06-10T09:01:29;34.50;96.80
25716;DHT22;13573;50.936;4.328;2023-06-10T09:03:57;35.30;96.10
25716;DHT22;13573;50.936;4.328;2023-06-10T09:06:25;34.60;95.00
25716;DHT22;13573;50.936;4.328;2023-06-10T09:08:52;34.70;94.60
25716;DHT22;13573;50.936;4.328;2023-06-10T09:11:19;33.40;95.80
25716;DHT22;13573;50.936;4.328;2023-06-10T09:13:46;33.30;95.40
25716;DHT22;13573;50.936;4.328;2023-06-10T09:16:13;33.90;95.00
25716;DHT22;13573;50.936;4.328;2023-06-10T09:18:39;33.90;94.00
25716;DHT22;13573;50.936;4.328;2023-06-10T09:21:06;34.30;93.90
25716;DHT22;13573;50.936;4.328;2023-06-10T09:23:33;34.80;93.20
25716;DHT22;13573;50.936;4.328;2023-06-10T09:26:00;35.50;91.90
25716;DHT22;13573;50.936;4.328;2023-06-10T09:28:29;35.40;92.10
25716;DHT22;13573;50.936;4.328;2023-06-10T09:31:03;34.10;92.30
25716;DHT22;13573;50.936;4.328;2023-06-10T09:33:31;34.60;92.20
25716;DHT22;13573;50.936;4.328;2023-06-10T09:36:01;34.50;92.50
25716;DHT22;13573;50.936;4.328;2023-06-10T09:38:30;34.90;92.20
25716;DHT22;13573;50.936;4.328;2023-06-10T09:40:58;35.10;90.40
25716;DHT22;13573;50.936;4.328;2023-06-10T09:43:38;34.30;90.40
25716;DHT22;13573;50.936;4.328;2023-06-10T09:45:56;34.50;90.60
25716;DHT22;13573;50.936;4.328;2023-06-10T09:48:23;34.70;89.90
25716;DHT22;13573;50.936;4.328;2023-06-10T09:50:49;35.30;89.50
25716;DHT22;13573;50.936;4.328;2023-06-10T09:53:17;35.30;88.90
25716;DHT22;13573;50.936;4.328;2023-06-10T09:55:44;35.80;87.60
25716;DHT22;13573;50.936;4.328;2023-06-10T09:58:11;35.90;87.80
25716;DHT22;13573;50.936;4.328;2023-06-10T10:00:38;35.40;88.80
25716;DHT22;13573;50.936;4.328;2023-06-10T10:03:04;35.80;87.80
25716;DHT22;13573;50.936;4.328;2023-06-10T10:05:32;34.60;88.90
25716;DHT22;13573;50.936;4.328;2023-06-10T10:07:59;34.30;88.80
25716;DHT22;13573;50.936;4.328;2023-06-10T10:10:26;33.50;89.80
25716;DHT22;13573;50.936;4.328;2023-06-10T10:12:54;34.10;88.70
25716;DHT22;13573;50.936;4.328;2023-06-10T10:15:23;34.50;88.00
25716;DHT22;13573;50.936;4.328;2023-06-10T10:17:58;35.40;87.00
25716;DHT22;13573;50.936;4.328;2023-06-10T10:20:29;35.90;86.90
25716;DHT22;13573;50.936;4.328;2023-06-10T10:22:57;36.10;87.00
25716;DHT22;13573;50.936;4.328;2023-06-10T10:25:29;35.60;86.40
25716;DHT22;13573;50.936;4.328;2023-06-10T10:28:02;34.50;87.40
25716;DHT22;13573;50.936;4.328;2023-06-10T10:30:30;34.40;87.30
25716;DHT22;13573;50.936;4.328;2023-06-10T10:33:02;34.50;86.90
25716;DHT22;13573;50.936;4.328;2023-06-10T10:35:30;34.40;86.60
25716;DHT22;13573;50.936;4.328;2023-06-10T10:38:00;34.40;86.60
25716;DHT22;13573;50.936;4.328;2023-06-10T10:40:29;35.30;86.50
25716;DHT22;13573;50.936;4.328;2023-06-10T10:42:56;35.50;86.00
25716;DHT22;13573;50.936;4.328;2023-06-10T10:45:23;35.90;84.70
25716;DHT22;13573;50.936;4.328;2023-06-10T10:47:53;36.00;84.00
25716;DHT22;13573;50.936;4.328;2023-06-10T10:50:22;36.10;83.10
25716;DHT22;13573;50.936;4.328;2023-06-10T10:52:53;35.80;83.80
25716;DHT22;13573;50.936;4.328;2023-06-10T10:55:23;35.30;82.80
25716;DHT22;13573;50.936;4.328;2023-06-10T10:57:56;35.10;82.70
25716;DHT22;13573;50.936;4.328;2023-06-10T11:00:29;35.00;81.60
25716;DHT22;13573;50.936;4.328;2023-06-10T11:03:04;36.20;80.70
25716;DHT22;13573;50.936;4.328;2023-06-10T11:05:41;36.70;81.20
25716;DHT22;13573;50.936;4.328;2023-06-10T11:08:11;35.20;81.90
25716;DHT22;13573;50.936;4.328;2023-06-10T11:10:41;35.90;82.50
25716;DHT22;13573;50.936;4.328;2023-06-10T11:13:13;36.20;78.20
25716;DHT22;13573;50.936;4.328;2023-06-10T11:15:43;36.50;80.50
25716;DHT22;13573;50.936;4.328;2023-06-10T11:18:20;36.10;78.20
25716;DHT22;13573;50.936;4.328;2023-06-10T11:21:04;35.70;79.70
25716;DHT22;13573;50.936;4.328;2023-06-10T11:23:37;35.90;80.80
25716;DHT22;13573;50.936;4.328;2023-06-10T11:26:14;36.50;80.40
25716;DHT22;13573;50.936;4.328;2023-06-10T11:29:14;37.30;79.30
25716;DHT22;13573;50.936;4.328;2023-06-10T11:31:32;37.60;76.70
25716;DHT22;13573;50.936;4.328;2023-06-10T11:34:02;36.90;75.40
25716;DHT22;13573;50.936;4.328;2023-06-10T11:36:32;35.30;75.90
25716;DHT22;13573;50.936;4.328;2023-06-10T11:39:01;34.50;78.10
25716;DHT22;13573;50.936;4.328;2023-06-10T11:41:29;34.60;79.10
25716;DHT22;13573;50.936;4.328;2023-06-10T11:44:00;34.30;80.50
25716;DHT22;13573;50.936;4.328;2023-06-10T11:46:26;34.60;78.30
25716;DHT22;13573;50.936;4.328;2023-06-10T11:48:56;35.60;75.90
25716;DHT22;13573;50.936;4.328;2023-06-10T11:51:27;34.70;76.60
25716;DHT22;13573;50.936;4.328;2023-06-10T11:53:54;33.90;78.90
25716;DHT22;13573;50.936;4.328;2023-06-10T11:56:23;34.20;78.30
25716;DHT22;13573;50.936;4.328;2023-06-10T11:58:54;34.10;79.60
25716;DHT22;13573;50.936;4.328;2023-06-10T12:01:21;34.70;79.80
25716;DHT22;13573;50.936;4.328;2023-06-10T12:06:23;35.40;76.60
25716;DHT22;13573;50.936;4.328;2023-06-10T12:08:49;34.60;77.90
25716;DHT22;13573;50.936;4.328;2023-06-10T12:11:16;35.00;78.30
25716;DHT22;13573;50.936;4.328;2023-06-10T12:13:48;36.30;77.70
25716;DHT22;13573;50.936;4.328;2023-06-10T12:16:15;37.60;76.60
25716;DHT22;13573;50.936;4.328;2023-06-10T12:18:44;37.00;75.10
25716;DHT22;13573;50.936;4.328;2023-06-10T12:21:17;35.60;77.30
25716;DHT22;13573;50.936;4.328;2023-06-10T12:26:33;36.30;76.00
25716;DHT22;13573;50.936;4.328;2023-06-10T12:28:53;34.90;76.40
25716;DHT22;13573;50.936;4.328;2023-06-10T12:31:19;35.00;76.40
25716;DHT22;13573;50.936;4.328;2023-06-10T12:33:46;35.50;77.20
25716;DHT22;13573;50.936;4.328;2023-06-10T12:36:16;36.60;76.50
25716;DHT22;13573;50.936;4.328;2023-06-10T12:38:43;37.60;72.70
25716;DHT22;13573;50.936;4.328;2023-06-10T12:41:11;37.50;73.30
25716;DHT22;13573;50.936;4.328;2023-06-10T12:43:39;37.90;74.70
25716;DHT22;13573;50.936;4.328;2023-06-10T12:46:09;36.90;74.50
25716;DHT22;13573;50.936;4.328;2023-06-10T12:48:48;37.80;73.60
25716;DHT22;13573;50.936;4.328;2023-06-10T12:51:08;37.60;73.00
25716;DHT22;13573;50.936;4.328;2023-06-10T12:53:35;36.80;74.20
25716;DHT22;13573;50.936;4.328;2023-06-10T12:56:02;36.50;73.60
25716;DHT22;13573;50.936;4.328;2023-06-10T12:58:29;36.50;73.50
25716;DHT22;13573;50.936;4.328;2023-06-10T13:00:55;36.00;73.70
25716;DHT22;13573;50.936;4.328;2023-06-10T13:03:22;36.30;74.10
25716;DHT22;13573;50.936;4.328;2023-06-10T13:05:49;35.40;73.60
25716;DHT22;13573;50.936;4.328;2023-06-10T13:08:15;36.00;72.90
25716;DHT22;13573;50.936;4.328;2023-06-10T13:10:42;36.30;73.30
25716;DHT22;13573;50.936;4.328;2023-06-10T13:13:09;35.90;74.20
25716;DHT22;13573;50.936;4.328;2023-06-10T13:15:36;35.50;73.30
25716;DHT22;13573;50.936;4.328;2023-06-10T13:18:03;34.50;73.80
25716;DHT22;13573;50.936;4.328;2023-06-10T13:20:31;34.30;74.00
25716;DHT22;13573;50.936;4.328;2023-06-10T13:22:58;34.70;73.80
25716;DHT22;13573;50.936;4.328;2023-06-10T13:25:24;35.50;74.60
25716;DHT22;13573;50.936;4.328;2023-06-10T13:27:51;35.20;73.20
25716;DHT22;13573;50.936;4.328;2023-06-10T13:30:17;35.90;73.60
25716;DHT22;13573;50.936;4.328;2023-06-10T13:32:44;36.50;73.40
25716;DHT22;13573;50.936;4.328;2023-06-10T13:35:11;37.20;72.20
25716;DHT22;13573;50.936;4.328;2023-06-10T13:37:37;36.80;72.50
25716;DHT22;13573;50.936;4.328;2023-06-10T13:40:05;35.70;72.80
25716;DHT22;13573;50.936;4.328;2023-06-10T13:42:32;36.30;72.40
25716;DHT22;13573;50.936;4.328;2023-06-10T13:44:58;35.90;72.30
25716;DHT22;13573;50.936;4.328;2023-06-10T13:47:25;36.30;72.90
25716;DHT22;13573;50.936;4.328;2023-06-10T13:49:52;36.20;72.90
25716;DHT22;13573;50.936;4.328;2023-06-10T13:52:19;36.20;72.30
25716;DHT22;13573;50.936;4.328;2023-06-10T13:54:46;35.50;72.10
25716;DHT22;13573;50.936;4.328;2023-06-10T13:57:12;35.40;72.80
25716;DHT22;13573;50.936;4.328;2023-06-10T13:59:39;36.50;72.40
25716;DHT22;13573;50.936;4.328;2023-06-10T14:02:06;37.10;71.50
25716;DHT22;13573;50.936;4.328;2023-06-10T14:04:32;37.10;71.60
25716;DHT22;13573;50.936;4.328;2023-06-10T14:06:59;37.40;72.00
25716;DHT22;13573;50.936;4.328;2023-06-10T14:09:26;37.20;72.50
25716;DHT22;13573;50.936;4.328;2023-06-10T14:11:54;35.30;71.70
25716;DHT22;13573;50.936;4.328;2023-06-10T14:14:20;34.20;73.80
25716;DHT22;13573;50.936;4.328;2023-06-10T14:16:48;33.90;74.70
25716;DHT22;13573;50.936;4.328;2023-06-10T14:19:14;33.90;73.90
25716;DHT22;13573;50.936;4.328;2023-06-10T14:21:41;33.90;74.60
25716;DHT22;13573;50.936;4.328;2023-06-10T14:24:08;32.80;76.20
25716;DHT22;13573;50.936;4.328;2023-06-10T14:26:34;32.90;74.40
25716;DHT22;13573;50.936;4.328;2023-06-10T14:29:01;32.60;75.60
25716;DHT22;13573;50.936;4.328;2023-06-10T14:31:28;32.70;75.80
25716;DHT22;13573;50.936;4.328;2023-06-10T14:33:55;32.90;76.30
25716;DHT22;13573;50.936;4.328;2023-06-10T14:36:21;33.10;75.90
25716;DHT22;13573;50.936;4.328;2023-06-10T14:38:48;33.20;74.80
25716;DHT22;13573;50.936;4.328;2023-06-10T14:41:15;33.50;75.60
25716;DHT22;13573;50.936;4.328;2023-06-10T14:43:42;32.10;77.30
25716;DHT22;13573;50.936;4.328;2023-06-10T14:46:08;31.80;78.70
25716;DHT22;13573;50.936;4.328;2023-06-10T14:48:35;32.30;76.40
25716;DHT22;13573;50.936;4.328;2023-06-10T14:51:02;32.40;76.80
25716;DHT22;13573;50.936;4.328;2023-06-10T14:53:29;32.70;76.90
25716;DHT22;13573;50.936;4.328;2023-06-10T14:55:56;33.00;77.10
25716;DHT22;13573;50.936;4.328;2023-06-10T14:58:22;33.20;74.90
25716;DHT22;13573;50.936;4.328;2023-06-10T15:00:49;33.50;74.70
25716;DHT22;13573;50.936;4.328;2023-06-10T15:03:16;33.20;75.90
25716;DHT22;13573;50.936;4.328;2023-06-10T15:05:43;33.40;75.10
25716;DHT22;13573;50.936;4.328;2023-06-10T15:08:09;33.20;75.70
25716;DHT22;13573;50.936;4.328;2023-06-10T15:10:37;33.40;75.60
25716;DHT22;13573;50.936;4.328;2023-06-10T15:13:03;32.30;78.40
25716;DHT22;13573;50.936;4.328;2023-06-10T15:15:30;32.70;77.20
25716;DHT22;13573;50.936;4.328;2023-06-10T15:17:57;32.70;77.50
25716;DHT22;13573;50.936;4.328;2023-06-10T15:20:23;32.20;75.70
25716;DHT22;13573;50.936;4.328;2023-06-10T15:22:50;32.90;76.80
25716;DHT22;13573;50.936;4.328;2023-06-10T15:25:16;31.90;78.40
25716;DHT22;13573;50.936;4.328;2023-06-10T15:27:43;32.20;77.90
25716;DHT22;13573;50.936;4.328;2023-06-10T15:30:10;31.90;77.50
25716;DHT22;13573;50.936;4.328;2023-06-10T15:32:36;31.90;76.60
25716;DHT22;13573;50.936;4.328;2023-06-10T15:35:03;32.20;76.60
25716;DHT22;13573;50.936;4.328;2023-06-10T15:37:30;32.40;76.30
25716;DHT22;13573;50.936;4.328;2023-06-10T15:39:57;31.50;78.40
25716;DHT22;13573;50.936;4.328;2023-06-10T15:42:23;31.00;76.70